Time;durP1;ratioP1;P1;durP2;ratioP2;P2;SDS_P1;SDS_P2;PMS_P1;PMS_P2;Temp;Humidity;BMP_temperature;BMP_pressure;BME280_temperature;BME280_humidity;BME280_pressure;Samples;Min_cycle;Max_cycle;Signal;HPM_P1;HPM_P2
2023/02/05 00:00:15;;;;;;;40.80;15.98;;;9.90;95.70;;;;;;5048598;28;20100;-75
2023/02/05 00:02:41;;;;;;;45.63;16.52;;;10.00;95.70;;;;;;5047026;28;20502;-75
2023/02/05 00:05:07;;;;;;;43.08;16.85;;;9.90;96.00;;;;;;5048051;28;20022;-75
2023/02/05 00:07:33;;;;;;;49.72;18.38;;;9.90;95.90;;;;;;5041131;28;20040;-76
2023/02/05 00:09:59;;;;;;;41.80;16.35;;;9.90;95.90;;;;;;5046748;28;20021;-75
2023/02/05 00:12:25;;;;;;;40.42;17.20;;;9.90;96.00;;;;;;5040502;28;20108;-75
2023/02/05 00:14:51;;;;;;;37.55;16.88;;;9.90;96.10;;;;;;5047757;28;20120;-76
2023/02/05 00:17:17;;;;;;;44.45;17.20;;;9.80;96.10;;;;;;5038477;28;20528;-76
2023/02/05 00:19:46;;;;;;;42.13;17.40;;;9.80;96.10;;;;;;5050705;28;20028;-79
2023/02/05 00:22:12;;;;;;;50.47;18.88;;;9.80;96.20;;;;;;5052009;28;20021;-75
2023/02/05 00:24:38;;;;;;;43.42;18.75;;;9.80;96.30;;;;;;5052357;28;20025;-76
2023/02/05 00:27:03;;;;;;;46.75;17.25;;;9.80;96.30;;;;;;5050793;28;20095;-77
2023/02/05 00:29:29;;;;;;;45.63;18.88;;;9.70;96.30;;;;;;5051003;28;20068;-75
2023/02/05 00:31:54;;;;;;;43.05;17.73;;;9.80;96.50;;;;;;5049432;28;20027;-76
2023/02/05 00:34:20;;;;;;;45.15;18.77;;;9.80;96.50;;;;;;5042206;28;20026;-76
2023/02/05 00:36:46;;;;;;;41.47;17.85;;;9.70;96.60;;;;;;5041262;28;20017;-76
2023/02/05 00:39:13;;;;;;;46.67;18.33;;;9.70;96.70;;;;;;5051247;28;20406;-75
2023/02/05 00:41:38;;;;;;;47.33;17.13;;;9.70;96.70;;;;;;5050901;28;20031;-76
2023/02/05 00:44:04;;;;;;;45.65;18.10;;;9.70;96.70;;;;;;5044007;28;20112;-75
2023/02/05 00:46:30;;;;;;;56.75;20.13;;;9.70;96.80;;;;;;5045451;28;20033;-76
2023/02/05 00:48:57;;;;;;;46.60;18.33;;;9.70;96.90;;;;;;5054775;28;20029;-76
2023/02/05 00:51:22;;;;;;;48.17;18.60;;;9.70;97.30;;;;;;5048338;28;20070;-76
2023/02/05 00:53:48;;;;;;;39.28;17.38;;;9.70;97.10;;;;;;5053566;28;20017;-75
2023/02/05 00:56:14;;;;;;;45.17;19.65;;;9.60;97.10;;;;;;5041317;28;20028;-76
2023/02/05 00:58:39;;;;;;;60.95;20.58;;;9.70;97.20;;;;;;5050264;28;20033;-76
2023/02/05 01:01:05;;;;;;;45.20;20.70;;;9.60;97.30;;;;;;5051427;28;20029;-76
2023/02/05 01:03:31;;;;;;;45.30;18.27;;;9.70;97.30;;;;;;5050521;28;20061;-76
2023/02/05 01:05:56;;;;;;;42.47;21.27;;;9.70;97.30;;;;;;5047857;28;20390;-76
2023/02/05 01:08:22;;;;;;;51.40;20.05;;;9.70;97.30;;;;;;5049113;28;20108;-76
2023/02/05 01:10:49;;;;;;;50.28;20.67;;;9.60;97.40;;;;;;5039019;28;20064;-75
2023/02/05 01:13:16;;;;;;;39.88;20.70;;;9.60;97.50;;;;;;5044122;28;20473;-77
2023/02/05 01:15:43;;;;;;;49.03;20.85;;;9.60;97.60;;;;;;5050081;28;20379;-75
2023/02/05 01:18:09;;;;;;;49.47;20.58;;;9.60;97.70;;;;;;5049123;28;20368;-75
2023/02/05 01:20:42;;;;;;;43.65;21.23;;;9.60;97.70;;;;;;5051570;28;20113;-76
2023/02/05 01:23:12;;;;;;;50.58;23.25;;;9.60;98.10;;;;;;5065689;28;20032;-76
2023/02/05 01:25:38;;;;;;;64.90;26.27;;;9.60;97.90;;;;;;5051436;28;20029;-76
2023/02/05 01:28:05;;;;;;;67.30;28.20;;;9.60;97.90;;;;;;5050741;28;20063;-76
2023/02/05 01:30:32;;;;;;;62.80;27.00;;;9.60;98.00;;;;;;5049714;28;20080;-74
2023/02/05 01:32:57;;;;;;;66.05;26.77;;;9.60;98.10;;;;;;5037883;28;20499;-76
2023/02/05 01:35:23;;;;;;;74.47;29.88;;;9.60;98.20;;;;;;5050364;28;20524;-76
2023/02/05 01:37:49;;;;;;;57.85;29.30;;;9.60;98.20;;;;;;5038154;28;20060;-76
2023/02/05 01:40:18;;;;;;;75.85;33.55;;;9.60;98.40;;;;;;5049782;28;20502;-76
2023/02/05 01:42:46;;;;;;;80.27;35.70;;;9.60;98.50;;;;;;5049958;28;20028;-75
2023/02/05 01:45:40;;;;;;;75.32;34.05;;;9.60;98.70;;;;;;5050608;28;20024;-75
2023/02/05 01:48:08;;;;;;;63.97;31.15;;;9.60;98.90;;;;;;5050404;28;20033;-75
2023/02/05 01:50:40;;;;;;;73.72;35.03;;;9.60;99.00;;;;;;5050694;28;20017;-76
2023/02/05 01:53:12;;;;;;;76.22;36.75;;;9.60;99.10;;;;;;5051004;28;20013;-76
2023/02/05 01:55:44;;;;;;;71.20;35.10;;;9.50;99.10;;;;;;5049985;28;20043;-75
2023/02/05 01:58:11;;;;;;;72.47;39.17;;;9.60;99.20;;;;;;5050572;28;20037;-74
2023/02/05 02:00:36;;;;;;;75.47;36.50;;;9.60;99.20;;;;;;5048920;28;20064;-75
2023/02/05 02:03:03;;;;;;;66.90;36.67;;;9.60;99.20;;;;;;5049224;28;20509;-76
2023/02/05 02:05:29;;;;;;;59.95;33.55;;;9.70;99.20;;;;;;5048044;28;20020;-76
2023/02/05 02:07:55;;;;;;;75.57;37.08;;;9.70;99.10;;;;;;5050141;28;20378;-76
2023/02/05 02:10:20;;;;;;;67.70;36.03;;;9.70;99.20;;;;;;5049696;28;20021;-76
2023/02/05 02:12:48;;;;;;;66.15;33.97;;;9.70;99.10;;;;;;5050560;28;20020;-76
2023/02/05 02:15:26;;;;;;;69.63;36.08;;;9.70;99.10;;;;;;5049482;28;20024;-76
2023/02/05 02:18:24;;;;;;;75.97;39.22;;;9.70;99.10;;;;;;5050759;28;20033;-76
2023/02/05 02:20:51;;;;;;;69.90;38.20;;;9.80;99.10;;;;;;5049549;28;20037;-76
2023/02/05 02:23:44;;;;;;;69.60;36.70;;;9.80;99.10;;;;;;5050173;28;20155;-76
2023/02/05 02:26:44;;;;;;;76.55;38.80;;;9.70;99.10;;;;;;5050974;28;20048;-76
2023/02/05 02:29:17;;;;;;;81.43;40.23;;;9.70;99.20;;;;;;5054237;28;20067;-76
2023/02/05 02:31:56;;;;;;;62.22;33.67;;;9.70;99.20;;;;;;5049495;28;20287;-75
2023/02/05 02:34:44;;;;;;;76.07;38.22;;;9.70;99.20;;;;;;5049499;28;20029;-76
2023/02/05 02:37:24;;;;;;;75.07;38.97;;;9.80;99.20;;;;;;5047217;28;20514;-76
2023/02/05 02:40:19;;;;;;;71.88;35.83;;;9.70;99.30;;;;;;5042898;28;20037;-76
2023/02/05 02:42:57;;;;;;;69.63;34.78;;;9.70;99.30;;;;;;5045243;28;20095;-75
2023/02/05 02:45:27;;;;;;;72.82;37.85;;;9.70;99.40;;;;;;5045023;28;20025;-76
2023/02/05 02:47:57;;;;;;;68.53;37.20;;;9.70;99.40;;;;;;5039896;28;20028;-75
2023/02/05 02:50:31;;;;;;;67.30;38.30;;;9.60;99.50;;;;;;5049545;28;20036;-76
2023/02/05 02:53:19;;;;;;;61.55;33.00;;;9.60;99.50;;;;;;5049867;28;20092;-76
2023/02/05 02:55:47;;;;;;;70.47;36.28;;;9.60;99.70;;;;;;5050093;28;20029;-76
2023/02/05 02:58:19;;;;;;;69.13;36.40;;;9.50;99.80;;;;;;5050436;28;20021;-75
2023/02/05 03:00:45;;;;;;;47.92;27.90;;;9.50;99.80;;;;;;5049573;28;20029;-75
2023/02/05 03:03:14;;;;;;;69.80;37.38;;;9.60;99.80;;;;;;5050808;28;20044;-75
2023/02/05 03:05:42;;;;;;;64.68;36.60;;;9.50;99.80;;;;;;5050393;28;20040;-76
2023/02/05 03:08:35;;;;;;;68.43;39.50;;;9.50;99.90;;;;;;5048777;28;20029;-76
2023/02/05 03:11:13;;;;;;;74.63;40.42;;;9.50;99.90;;;;;;5050033;28;20032;-76
2023/02/05 03:13:39;;;;;;;62.35;37.03;;;9.50;99.90;;;;;;5049968;28;20025;-75
2023/02/05 03:16:05;;;;;;;58.22;32.10;;;9.50;99.90;;;;;;5048813;28;20027;-76
2023/02/05 03:18:32;;;;;;;63.55;34.78;;;9.50;99.80;;;;;;5050582;28;20107;-75
2023/02/05 03:21:03;;;;;;;62.75;36.42;;;9.50;99.80;;;;;;5049712;28;20035;-76
2023/02/05 03:23:28;;;;;;;57.50;31.70;;;9.60;99.80;;;;;;5049288;28;20490;-75
2023/02/05 03:25:54;;;;;;;51.13;31.65;;;9.60;99.90;;;;;;5049630;28;20025;-75
2023/02/05 03:28:22;;;;;;;51.60;30.30;;;9.60;99.60;;;;;;5049888;28;20029;-76
2023/02/05 03:31:14;;;;;;;55.25;31.70;;;9.60;99.60;;;;;;5050009;28;20025;-75
2023/02/05 03:34:05;;;;;;;54.42;30.25;;;9.60;99.60;;;;;;5050238;28;20017;-75
2023/02/05 03:37:08;;;;;;;45.63;26.08;;;9.60;99.50;;;;;;5039895;28;20383;-75
2023/02/05 03:40:22;;;;;;;49.08;28.58;;;9.50;99.40;;;;;;5038937;28;20521;-76
2023/02/05 03:43:09;;;;;;;47.58;26.52;;;9.50;99.40;;;;;;5037077;28;20024;-76
2023/02/05 03:45:53;;;;;;;52.53;25.42;;;9.50;99.30;;;;;;5047262;28;20520;-76
2023/02/05 03:48:36;;;;;;;44.60;26.75;;;9.50;99.30;;;;;;5045099;28;20046;-76
2023/02/05 03:51:18;;;;;;;53.90;29.50;;;9.40;99.30;;;;;;5047405;28;20036;-75
2023/02/05 03:54:09;;;;;;;47.55;29.38;;;9.40;99.30;;;;;;5045319;28;20013;-76
2023/02/05 03:56:48;;;;;;;49.38;29.08;;;9.40;99.30;;;;;;5043820;28;20049;-76
2023/02/05 03:59:15;;;;;;;44.50;25.85;;;9.40;99.30;;;;;;5045331;28;20056;-75
2023/02/05 04:01:43;;;;;;;43.95;25.67;;;9.40;99.30;;;;;;5048648;28;20068;-75
2023/02/05 04:04:09;;;;;;;46.58;25.10;;;9.40;99.30;;;;;;5048993;28;20517;-76
2023/02/05 04:06:35;;;;;;;43.40;25.40;;;9.40;99.20;;;;;;5048978;28;20107;-76
2023/02/05 04:09:00;;;;;;;44.97;25.13;;;9.40;99.20;;;;;;5048318;28;20013;-75
2023/02/05 04:11:26;;;;;;;42.38;23.77;;;9.40;99.10;;;;;;5049016;28;20029;-75
2023/02/05 04:13:51;;;;;;;39.92;24.25;;;9.40;99.10;;;;;;5048202;28;20051;-75
2023/02/05 04:16:17;;;;;;;47.42;26.45;;;9.40;99.10;;;;;;5048055;28;20075;-76
2023/02/05 04:18:43;;;;;;;42.42;24.58;;;9.40;99.10;;;;;;5047824;28;20033;-76
2023/02/05 04:21:08;;;;;;;41.35;24.15;;;9.40;99.00;;;;;;5040690;28;20025;-76
2023/02/05 04:23:34;;;;;;;43.60;26.33;;;9.40;98.90;;;;;;5047188;28;20025;-75
2023/02/05 04:25:59;;;;;;;43.67;24.42;;;9.30;99.00;;;;;;5047314;28;20386;-75
2023/02/05 04:28:25;;;;;;;38.08;22.75;;;9.30;99.00;;;;;;5048980;28;20025;-76
2023/02/05 04:30:51;;;;;;;41.72;24.00;;;9.30;98.90;;;;;;5051853;28;20028;-76
2023/02/05 04:33:16;;;;;;;40.80;21.35;;;9.30;99.00;;;;;;5051132;28;20025;-76
2023/02/05 04:35:42;;;;;;;37.53;22.70;;;9.30;98.90;;;;;;5049728;28;20060;-75
2023/02/05 04:38:08;;;;;;;36.70;21.77;;;9.30;98.90;;;;;;5049787;28;20048;-75
2023/02/05 04:40:34;;;;;;;36.55;21.38;;;9.30;98.80;;;;;;5048696;28;20037;-75
2023/02/05 04:43:03;;;;;;;36.85;20.45;;;9.40;98.80;;;;;;5048696;28;20483;-76
2023/02/05 04:45:32;;;;;;;38.67;21.45;;;9.30;98.80;;;;;;5049039;28;20391;-76
2023/02/05 04:47:58;;;;;;;34.42;20.75;;;9.30;98.70;;;;;;5049025;28;20037;-75
2023/02/05 04:50:25;;;;;;;29.60;18.75;;;9.40;98.70;;;;;;5048851;28;20021;-76
2023/02/05 04:52:53;;;;;;;33.20;18.20;;;9.40;98.60;;;;;;5058009;28;20029;-76
2023/02/05 04:55:19;;;;;;;36.03;20.55;;;9.30;98.60;;;;;;5053249;28;20025;-75
2023/02/05 04:57:44;;;;;;;36.75;20.60;;;9.30;98.60;;;;;;5050179;28;20103;-76
2023/02/05 05:00:10;;;;;;;35.20;20.15;;;9.40;98.70;;;;;;5048380;28;20025;-77
2023/02/05 05:02:36;;;;;;;37.63;21.45;;;9.30;98.70;;;;;;5049000;28;20021;-76
2023/02/05 05:05:03;;;;;;;35.40;19.13;;;9.30;98.70;;;;;;5048328;28;20025;-75
2023/02/05 05:07:29;;;;;;;36.53;19.27;;;9.30;98.70;;;;;;5045898;28;20032;-76
2023/02/05 05:09:55;;;;;;;33.55;19.60;;;9.40;98.70;;;;;;5052742;28;20037;-76
2023/02/05 05:12:21;;;;;;;27.98;17.02;;;9.30;98.70;;;;;;5053744;28;20078;-75
2023/02/05 05:14:46;;;;;;;39.83;21.80;;;9.30;98.70;;;;;;5053660;28;20095;-76
2023/02/05 05:17:13;;;;;;;33.38;19.10;;;9.30;98.70;;;;;;5054276;28;20031;-76
2023/02/05 05:19:39;;;;;;;33.92;19.98;;;9.30;98.80;;;;;;5051737;28;20045;-75
2023/02/05 05:22:05;;;;;;;33.63;17.77;;;9.30;98.80;;;;;;5053615;28;20021;-75
2023/02/05 05:24:30;;;;;;;34.83;20.08;;;9.30;98.90;;;;;;5054325;28;20032;-75
2023/02/05 05:26:56;;;;;;;32.30;18.65;;;9.30;98.90;;;;;;5051411;28;20084;-75
2023/02/05 05:29:23;;;;;;;38.25;22.35;;;9.30;98.90;;;;;;5050593;28;20030;-75
2023/02/05 05:31:51;;;;;;;33.40;19.48;;;9.30;99.00;;;;;;5046040;28;20502;-75
2023/02/05 05:34:17;;;;;;;38.28;23.10;;;9.30;99.10;;;;;;5053259;28;20029;-75
2023/02/05 05:36:44;;;;;;;41.58;21.98;;;9.30;99.20;;;;;;5052597;28;20031;-75
2023/02/05 05:44:52;;;;;;;27.52;17.30;;;9.20;99.40;;;;;;5052591;28;20753;-75
2023/02/05 05:47:18;;;;;;;33.67;21.10;;;9.10;99.50;;;;;;5052619;28;20021;-75
2023/02/05 05:49:44;;;;;;;30.30;18.63;;;9.00;99.70;;;;;;5048230;28;20045;-74
2023/02/05 05:52:11;;;;;;;34.30;21.50;;;9.00;99.80;;;;;;5042978;28;20025;-74
2023/02/05 05:54:36;;;;;;;35.42;22.40;;;8.90;99.90;;;;;;5050520;28;20033;-74
2023/02/05 05:57:03;;;;;;;28.30;16.38;;;9.00;99.90;;;;;;5049910;28;20017;-74
2023/02/05 05:59:29;;;;;;;28.98;18.52;;;9.00;99.90;;;;;;5052902;28;20033;-74
2023/02/05 06:01:55;;;;;;;28.30;17.88;;;8.90;99.90;;;;;;5051640;28;20029;-74
2023/02/05 06:04:22;;;;;;;25.30;15.40;;;8.90;99.90;;;;;;5053207;28;20013;-75
2023/02/05 06:06:47;;;;;;;21.73;13.13;;;8.80;99.90;;;;;;5052875;28;20029;-75
2023/02/05 06:09:13;;;;;;;20.42;12.63;;;8.90;99.90;;;;;;5040412;28;20025;-75
2023/02/05 06:11:39;;;;;;;21.60;12.50;;;8.90;99.90;;;;;;5030306;28;20022;-74
2023/02/05 06:14:04;;;;;;;18.52;10.98;;;8.80;99.90;;;;;;5049340;28;20017;-74
2023/02/05 06:16:30;;;;;;;17.98;10.55;;;8.80;99.90;;;;;;5049692;28;20423;-75
2023/02/05 06:18:56;;;;;;;17.90;10.02;;;8.80;99.90;;;;;;5047557;28;20044;-74
2023/02/05 06:21:22;;;;;;;13.38;7.65;;;8.90;99.90;;;;;;5051593;28;20021;-74
2023/02/05 06:23:48;;;;;;;11.32;7.10;;;8.90;99.80;;;;;;5052671;28;20030;-75
2023/02/05 06:26:14;;;;;;;10.85;4.20;;;8.90;99.70;;;;;;5045666;28;20159;-75
2023/02/05 06:28:40;;;;;;;9.40;3.38;;;8.90;99.40;;;;;;5042638;28;20909;-76
2023/02/05 06:31:06;;;;;;;8.18;2.22;;;8.80;99.10;;;;;;5049373;28;20028;-75
2023/02/05 06:33:31;;;;;;;8.88;2.65;;;8.70;98.80;;;;;;5049735;28;20071;-75
2023/02/05 06:35:57;;;;;;;7.50;2.58;;;8.70;99.00;;;;;;5051061;28;20029;-75
2023/02/05 06:38:23;;;;;;;7.40;1.35;;;8.60;99.00;;;;;;5046440;28;20057;-76
2023/02/05 06:40:48;;;;;;;13.35;2.00;;;8.50;98.80;;;;;;5049778;28;20025;-74
2023/02/05 06:43:14;;;;;;;7.07;1.85;;;8.40;98.80;;;;;;5050925;28;20013;-75
2023/02/05 06:45:40;;;;;;;11.05;2.05;;;8.30;99.00;;;;;;5051211;28;20025;-75
2023/02/05 06:48:05;;;;;;;7.95;1.92;;;8.30;99.20;;;;;;5050485;28;20037;-75
2023/02/05 06:50:31;;;;;;;4.90;1.70;;;8.20;99.10;;;;;;5049907;28;20033;-76
2023/02/05 06:52:58;;;;;;;8.77;2.03;;;8.20;99.80;;;;;;5040549;28;20036;-75
2023/02/05 06:55:23;;;;;;;7.93;1.70;;;8.20;99.40;;;;;;5050261;28;20027;-76
2023/02/05 06:57:49;;;;;;;13.30;2.33;;;8.20;99.20;;;;;;5044489;28;20017;-76
2023/02/05 07:00:15;;;;;;;10.27;2.63;;;8.20;99.40;;;;;;5050603;28;20029;-76
2023/02/05 07:02:41;;;;;;;5.22;1.25;;;8.20;99.90;;;;;;5046590;28;20025;-76
2023/02/05 07:05:07;;;;;;;9.10;1.55;;;8.20;99.90;;;;;;5049124;28;20017;-75
2023/02/05 07:07:33;;;;;;;7.20;2.08;;;8.10;99.20;;;;;;5048883;28;20059;-75
2023/02/05 07:10:00;;;;;;;9.25;1.27;;;8.10;99.10;;;;;;5050846;28;20060;-76
2023/02/05 07:12:26;;;;;;;12.25;2.05;;;8.10;99.10;;;;;;5050387;28;20806;-75
2023/02/05 07:14:51;;;;;;;11.38;1.73;;;8.10;99.00;;;;;;5049111;28;20125;-75
2023/02/05 07:17:17;;;;;;;9.80;2.17;;;7.90;99.10;;;;;;5049817;28;20029;-75
2023/02/05 07:19:42;;;;;;;7.45;1.52;;;8.10;99.50;;;;;;5047314;28;20064;-75
2023/02/05 07:22:11;;;;;;;13.63;2.20;;;8.00;99.40;;;;;;5057225;28;20360;-76
2023/02/05 07:24:37;;;;;;;7.60;1.45;;;7.90;99.50;;;;;;5054628;28;20028;-74
2023/02/05 07:27:02;;;;;;;9.30;1.80;;;7.90;99.30;;;;;;5049166;28;20044;-76
2023/02/05 07:29:28;;;;;;;8.85;1.30;;;7.90;99.20;;;;;;5048699;28;20029;-75
2023/02/05 07:31:54;;;;;;;10.85;1.80;;;7.80;99.10;;;;;;5048665;28;20486;-75
2023/02/05 07:34:20;;;;;;;4.22;1.38;;;7.90;99.30;;;;;;5050210;28;20115;-75
2023/02/05 07:36:49;;;;;;;8.77;2.50;;;8.00;99.90;;;;;;5046188;28;20084;-77
2023/02/05 07:39:15;;;;;;;9.52;1.98;;;8.00;99.60;;;;;;5049596;28;20041;-75
2023/02/05 07:41:40;;;;;;;11.57;1.95;;;7.90;99.30;;;;;;5048812;28;20028;-76
2023/02/05 07:44:07;;;;;;;17.92;2.83;;;8.00;99.60;;;;;;5050281;28;20029;-76
2023/02/05 07:46:33;;;;;;;9.15;2.17;;;8.00;99.40;;;;;;5050489;28;20021;-76
2023/02/05 07:48:58;;;;;;;11.70;1.77;;;7.90;99.20;;;;;;5050559;28;20075;-76
2023/02/05 07:51:24;;;;;;;13.18;2.47;;;8.00;99.00;;;;;;5050087;28;20025;-76
2023/02/05 07:53:51;;;;;;;11.10;2.00;;;8.00;98.90;;;;;;5048634;28;20824;-76
2023/02/05 07:56:20;;;;;;;11.43;2.42;;;8.00;98.80;;;;;;5049377;28;20025;-75
2023/02/05 07:58:52;;;;;;;12.70;1.70;;;8.00;99.00;;;;;;5035154;28;20116;-75
2023/02/05 08:01:17;;;;;;;17.70;3.05;;;8.00;98.80;;;;;;5045906;28;20777;-76
2023/02/05 08:03:43;;;;;;;12.88;1.92;;;8.10;98.80;;;;;;5050591;28;20033;-76
2023/02/05 08:06:12;;;;;;;10.70;1.80;;;8.10;99.00;;;;;;5047958;28;20052;-77
2023/02/05 08:08:38;;;;;;;8.73;1.67;;;8.10;99.10;;;;;;5049889;28;20043;-77
2023/02/05 08:11:05;;;;;;;16.92;3.08;;;8.20;99.10;;;;;;5047707;28;20511;-78
2023/02/05 08:13:31;;;;;;;11.20;1.60;;;8.20;99.50;;;;;;5048113;28;20436;-77
2023/02/05 08:16:04;;;;;;;11.13;1.83;;;8.20;99.10;;;;;;5046606;28;20101;-76
2023/02/05 08:18:32;;;;;;;14.63;2.40;;;8.20;99.30;;;;;;5047520;28;20035;-77
2023/02/05 08:20:58;;;;;;;15.80;2.63;;;8.30;99.50;;;;;;5042090;28;20060;-77
2023/02/05 08:23:24;;;;;;;18.83;2.90;;;8.20;99.10;;;;;;5048583;28;20123;-77
2023/02/05 08:25:54;;;;;;;14.10;2.38;;;8.20;99.00;;;;;;5045361;28;20017;-77
2023/02/05 08:28:21;;;;;;;19.17;2.78;;;8.20;99.10;;;;;;5046628;28;20051;-78
2023/02/05 08:30:47;;;;;;;26.95;5.78;;;8.30;99.50;;;;;;5045552;28;20039;-77
2023/02/05 08:33:12;;;;;;;30.67;11.80;;;8.20;99.30;;;;;;5045935;28;20017;-76
2023/02/05 08:35:38;;;;;;;17.38;5.18;;;8.20;99.00;;;;;;5047938;28;20486;-76
2023/02/05 08:38:03;;;;;;;22.10;8.88;;;8.30;99.60;;;;;;5049428;28;20601;-76
2023/02/05 08:40:29;;;;;;;12.00;5.93;;;8.30;99.70;;;;;;5049225;28;20036;-77
2023/02/05 08:42:59;;;;;;;26.73;9.77;;;8.30;99.80;;;;;;5051833;28;20029;-76
2023/02/05 08:45:26;;;;;;;27.53;6.77;;;8.30;99.80;;;;;;5049218;28;20096;-76
2023/02/05 08:48:02;;;;;;;25.38;4.20;;;8.30;99.50;;;;;;5049809;28;20024;-78
2023/02/05 08:50:27;;;;;;;21.75;4.57;;;8.40;99.50;;;;;;5051113;28;20025;-76
2023/02/05 08:52:53;;;;;;;19.42;3.92;;;8.30;99.30;;;;;;5044451;28;20021;-75
2023/02/05 08:55:19;;;;;;;16.48;3.38;;;8.30;99.20;;;;;;5050156;28;20106;-76
2023/02/05 08:57:45;;;;;;;21.73;3.75;;;8.40;99.70;;;;;;5047366;28;20033;-75
2023/02/05 09:00:12;;;;;;;49.72;30.52;;;8.40;99.80;;;;;;5045330;28;20021;-74
2023/02/05 09:02:39;;;;;;;22.52;5.30;;;8.40;99.70;;;;;;5048306;28;20028;-75
2023/02/05 09:05:05;;;;;;;24.92;4.38;;;8.40;99.70;;;;;;5045786;28;20040;-77
2023/02/05 09:07:32;;;;;;;18.40;4.15;;;8.50;99.40;;;;;;5044040;28;20032;-75
2023/02/05 09:09:58;;;;;;;19.50;4.55;;;8.50;99.80;;;;;;5044822;28;20092;-75
2023/02/05 09:12:23;;;;;;;19.92;5.20;;;8.50;99.40;;;;;;5036607;28;20020;-75
2023/02/05 09:14:50;;;;;;;22.95;6.22;;;8.40;99.20;;;;;;5046886;28;20039;-76
2023/02/05 09:17:17;;;;;;;15.32;3.80;;;8.50;99.40;;;;;;5047629;28;20383;-75
2023/02/05 09:19:42;;;;;;;29.30;6.03;;;8.60;99.90;;;;;;5053983;28;20017;-75
2023/02/05 09:22:09;;;;;;;23.38;5.07;;;8.70;99.90;;;;;;5045948;28;20025;-76
2023/02/05 09:24:36;;;;;;;28.92;8.35;;;8.70;99.10;;;;;;5045236;28;20036;-76
2023/02/05 09:27:01;;;;;;;27.55;8.63;;;8.80;98.80;;;;;;5040790;28;20052;-75
2023/02/05 09:29:28;;;;;;;49.22;20.50;;;8.70;98.40;;;;;;5044352;28;20026;-76
2023/02/05 09:31:54;;;;;;;37.50;14.63;;;8.70;98.40;;;;;;5045022;28;20035;-75
2023/02/05 09:34:20;;;;;;;31.55;9.13;;;8.80;99.00;;;;;;5039499;28;20704;-78
2023/02/05 09:36:45;;;;;;;27.98;7.47;;;8.80;98.80;;;;;;5045047;28;20102;-77
2023/02/05 09:39:11;;;;;;;27.15;8.10;;;8.90;99.00;;;;;;5047879;28;20036;-77
2023/02/05 09:41:57;;;;;;;26.60;6.20;;;9.00;98.50;;;;;;5044262;28;20041;-77
2023/02/05 09:45:00;;;;;;;28.23;5.35;;;9.00;98.00;;;;;;5042077;28;20025;-78
2023/02/05 09:47:46;;;;;;;23.73;4.47;;;9.20;98.80;;;;;;5046594;28;20515;-78
2023/02/05 09:50:28;;;;;;;23.05;5.03;;;9.20;99.10;;;;;;5061038;28;20108;-79
2023/02/05 09:53:08;;;;;;;25.50;5.53;;;9.10;98.20;;;;;;5041982;28;20024;-77
2023/02/05 09:55:41;;;;;;;29.88;5.68;;;9.10;97.40;;;;;;5044092;28;20029;-78
2023/02/05 09:58:25;;;;;;;34.38;8.10;;;9.10;98.00;;;;;;5046904;28;20013;-78
2023/02/05 10:00:58;;;;;;;29.98;9.40;;;9.10;97.70;;;;;;5058084;28;20411;-78
2023/02/05 10:03:44;;;;;;;38.15;10.57;;;9.10;97.70;;;;;;5050428;28;20119;-78
2023/02/05 10:06:12;;;;;;;24.98;6.22;;;9.10;97.80;;;;;;5050370;28;20567;-78
2023/02/05 10:09:07;;;;;;;51.63;13.27;;;9.20;97.90;;;;;;5047545;28;20036;-78
2023/02/05 10:11:51;;;;;;;25.92;6.25;;;9.20;97.30;;;;;;5043127;28;20025;-78
2023/02/05 10:14:38;;;;;;;33.63;8.57;;;9.20;98.60;;;;;;5055414;28;20407;-78
2023/02/05 10:17:35;;;;;;;24.02;5.30;;;9.20;97.70;;;;;;5040259;28;20029;-78
2023/02/05 10:20:01;;;;;;;26.88;4.82;;;9.10;97.00;;;;;;5040875;28;20473;-79
2023/02/05 10:22:37;;;;;;;21.00;4.53;;;9.20;98.10;;;;;;5039017;28;20017;-76
2023/02/05 10:25:33;;;;;;;25.20;5.80;;;9.30;97.00;;;;;;5035921;28;20032;-77
2023/02/05 10:28:20;;;;;;;23.52;5.10;;;9.40;97.00;;;;;;5039103;28;20127;-77
2023/02/05 10:31:26;;;;;;;21.27;6.00;;;9.50;97.00;;;;;;5041090;28;20080;-76
2023/02/05 10:33:54;;;;;;;24.77;4.80;;;9.60;97.30;;;;;;5042126;28;20037;-76
2023/02/05 10:36:23;;;;;;;28.85;5.30;;;9.70;96.50;;;;;;5036547;28;20033;-77
2023/02/05 10:38:51;;;;;;;23.27;4.85;;;9.80;96.90;;;;;;5038398;28;20076;-77
2023/02/05 10:41:43;;;;;;;21.00;5.95;;;9.70;95.40;;;;;;5037376;28;20685;-77
2023/02/05 10:44:43;;;;;;;15.02;2.88;;;9.80;96.50;;;;;;5041279;28;20083;-75
2023/02/05 10:47:20;;;;;;;22.88;4.10;;;9.80;97.30;;;;;;5017548;28;20029;-77
2023/02/05 10:50:33;;;;;;;22.83;4.53;;;9.70;96.60;;;;;;5038092;28;20031;-77
2023/02/05 10:52:59;;;;;;;26.05;6.25;;;9.70;96.50;;;;;;5057009;28;20705;-78
2023/02/05 10:55:25;;;;;;;26.60;5.60;;;9.70;96.30;;;;;;5042965;28;20101;-77
2023/02/05 10:57:50;;;;;;;15.07;3.00;;;9.60;94.90;;;;;;5038436;28;20032;-79
2023/02/05 11:00:20;;;;;;;30.75;7.38;;;9.70;97.30;;;;;;5035043;28;20467;-77
2023/02/05 11:02:53;;;;;;;24.05;3.85;;;9.70;96.30;;;;;;5042846;28;20423;-77
2023/02/05 11:05:35;;;;;;;15.57;3.78;;;9.60;95.30;;;;;;5038611;28;20372;-75
2023/02/05 11:08:02;;;;;;;26.08;4.68;;;9.70;97.20;;;;;;5035048;28;20086;-77
2023/02/05 11:10:31;;;;;;;28.58;5.13;;;9.70;96.00;;;;;;5041181;28;20025;-76
2023/02/05 11:13:18;;;;;;;18.52;4.45;;;9.70;96.80;;;;;;5040661;28;20024;-76
2023/02/05 11:16:01;;;;;;;20.02;3.42;;;9.70;95.30;;;;;;5037536;28;20055;-77
2023/02/05 11:18:31;;;;;;;25.58;4.85;;;9.70;97.30;;;;;;5040160;28;20029;-78
2023/02/05 11:21:00;;;;;;;19.17;3.38;;;9.70;96.60;;;;;;5035940;28;20120;-75
2023/02/05 11:23:29;;;;;;;28.27;4.55;;;9.80;96.40;;;;;;5038077;28;20048;-77
2023/02/05 11:26:06;;;;;;;20.23;3.47;;;9.80;96.10;;;;;;5033310;28;20035;-77
2023/02/05 11:28:34;;;;;;;29.27;5.05;;;9.80;96.70;;;;;;5039544;28;20025;-78
2023/02/05 11:31:26;;;;;;;17.27;4.10;;;9.80;96.10;;;;;;5041701;28;20131;-77
2023/02/05 11:34:08;;;;;;;16.05;4.00;;;9.80;95.80;;;;;;5040101;28;20390;-76
2023/02/05 11:36:36;;;;;;;20.40;3.83;;;9.80;96.50;;;;;;5036450;28;20404;-77
2023/02/05 11:39:04;;;;;;;20.08;4.30;;;9.80;96.70;;;;;;5039303;28;20025;-78
2023/02/05 11:41:30;;;;;;;28.23;4.78;;;9.80;96.50;;;;;;5039116;28;20021;-77
2023/02/05 11:43:58;;;;;;;24.13;5.13;;;9.90;95.80;;;;;;5037948;28;20039;-77
2023/02/05 11:46:26;;;;;;;24.58;4.82;;;9.90;94.80;;;;;;5037109;28;20532;-77
2023/02/05 11:49:01;;;;;;;23.33;3.88;;;10.10;95.90;;;;;;5038859;28;20440;-77
2023/02/05 11:51:43;;;;;;;25.33;4.50;;;10.10;95.80;;;;;;5037219;28;20029;-77
2023/02/05 11:54:22;;;;;;;30.45;5.00;;;10.20;94.80;;;;;;5050377;28;20116;-77
2023/02/05 11:57:18;;;;;;;22.83;5.07;;;10.30;95.80;;;;;;5038296;28;20057;-78
2023/02/05 12:00:07;;;;;;;22.00;4.28;;;10.30;96.60;;;;;;5038307;28;20029;-77
2023/02/05 12:02:35;;;;;;;25.00;6.43;;;10.30;96.40;;;;;;5034936;28;20552;-78
2023/02/05 12:05:04;;;;;;;26.55;7.68;;;10.30;96.20;;;;;;5035910;28;20025;-78
2023/02/05 12:07:45;;;;;;;23.77;4.47;;;10.20;95.90;;;;;;5048300;28;20026;-77
2023/02/05 12:10:27;;;;;;;26.17;5.65;;;10.20;94.80;;;;;;5037748;28;20017;-78
2023/02/05 12:12:59;;;;;;;28.92;4.65;;;10.20;96.30;;;;;;5032866;28;20104;-77
2023/02/05 12:15:29;;;;;;;24.25;5.88;;;10.10;95.10;;;;;;5038372;28;20021;-77
2023/02/05 12:18:26;;;;;;;25.70;3.90;;;10.20;95.10;;;;;;5036941;28;20386;-79
2023/02/05 12:21:07;;;;;;;30.13;4.65;;;10.20;96.50;;;;;;5035383;28;20033;-77
2023/02/05 12:24:10;;;;;;;24.95;5.00;;;10.20;94.70;;;;;;5032699;28;20083;-76
2023/02/05 12:26:40;;;;;;;27.17;5.43;;;10.20;93.50;;;;;;5041359;28;20190;-81
2023/02/05 12:29:33;;;;;;;22.20;5.00;;;10.30;94.10;;;;;;5037023;28;20670;-77
2023/02/05 12:32:13;;;;;;;26.17;4.97;;;10.50;93.10;;;;;;5037259;28;20100;-77
2023/02/05 12:34:39;;;;;;;19.05;4.22;;;10.80;90.60;;;;;;5038540;28;20071;-77
2023/02/05 12:37:45;;;;;;;24.90;4.95;;;11.20;92.90;;;;;;5034492;28;20035;-78
2023/02/05 12:40:19;;;;;;;14.68;3.67;;;11.60;91.20;;;;;;5034162;28;20033;-78
2023/02/05 12:42:55;;;;;;;28.58;5.28;;;12.00;91.50;;;;;;5037224;28;20028;-77
2023/02/05 12:45:46;;;;;;;20.77;4.05;;;12.20;88.00;;;;;;5040418;28;20060;-77
2023/02/05 12:48:24;;;;;;;17.38;3.83;;;12.40;91.40;;;;;;5038173;28;20120;-78
2023/02/05 12:50:53;;;;;;;38.72;12.30;;;12.40;92.90;;;;;;5034728;28;20214;-77
2023/02/05 12:53:42;;;;;;;42.65;16.50;;;12.30;90.10;;;;;;5038651;28;20044;-77
2023/02/05 12:56:21;;;;;;;31.02;8.48;;;12.10;93.60;;;;;;5035288;28;20126;-77
2023/02/05 12:58:54;;;;;;;19.90;5.07;;;11.90;91.50;;;;;;5035755;28;20040;-77
2023/02/05 13:01:25;;;;;;;24.77;5.97;;;11.80;94.30;;;;;;5037937;28;20029;-77
2023/02/05 13:03:57;;;;;;;27.83;6.05;;;11.60;95.00;;;;;;5040101;28;20074;-77
2023/02/05 13:06:31;;;;;;;23.58;5.15;;;11.40;92.10;;;;;;5038839;28;20034;-77